Time;durP1;ratioP1;P1;durP2;ratioP2;P2;SDS_P1;SDS_P2;PMS_P1;PMS_P2;Temp;Humidity;BMP_temperature;BMP_pressure;BME280_temperature;BME280_humidity;BME280_pressure;Samples;Min_cycle;Max_cycle;Signal;HPM_P1;HPM_P2
2022/03/11 00:02:23;;;;;;;15.13;6.75;;;;;;;;;;5017484;28;20104;-80
2022/03/11 00:04:49;;;;;;;12.25;6.47;;;;;;;;;;5017250;28;20078;-80
2022/03/11 00:07:16;;;;;;;15.25;6.75;;;;;;;;;;5017118;28;20033;-81
2022/03/11 00:09:42;;;;;;;12.50;6.43;;;;;;;;;;5016583;28;20034;-80
2022/03/11 00:12:08;;;;;;;14.18;6.15;;;;;;;;;;5017467;28;20041;-80
2022/03/11 00:14:35;;;;;;;16.13;6.95;;;;;;;;;;5016661;28;20026;-80
2022/03/11 00:17:02;;;;;;;12.18;6.75;;;;;;;;;;5015700;28;20164;-80
2022/03/11 00:19:28;;;;;;;14.18;6.55;;;;;;;;;;5016810;28;20029;-81
2022/03/11 00:21:55;;;;;;;15.57;6.70;;;;;;;;;;5016338;28;20109;-81
2022/03/11 00:24:21;;;;;;;11.77;6.55;;;;;;;;;;5000605;28;20029;-80
2022/03/11 00:26:47;;;;;;;12.68;6.63;;;;;;;;;;5001414;28;20033;-81
2022/03/11 00:29:13;;;;;;;12.65;6.55;;;;;;;;;;5016584;28;20038;-80
2022/03/11 00:31:39;;;;;;;11.02;5.93;;;;;;;;;;5015566;28;20379;-81
2022/03/11 00:34:05;;;;;;;10.75;6.07;;;;;;;;;;5015797;28;20121;-81
2022/03/11 00:36:32;;;;;;;12.68;6.70;;;;;;;;;;5005643;28;20113;-81
2022/03/11 00:38:58;;;;;;;10.65;6.68;;;;;;;;;;4993721;28;20022;-80
2022/03/11 00:41:24;;;;;;;12.40;6.47;;;;;;;;;;4994652;28;20030;-80
2022/03/11 00:43:50;;;;;;;9.73;6.25;;;;;;;;;;4995222;28;20058;-80
2022/03/11 00:46:16;;;;;;;10.95;6.00;;;;;;;;;;4995327;28;20402;-80
2022/03/11 00:48:42;;;;;;;12.57;6.55;;;;;;;;;;4994324;28;20022;-80
2022/03/11 00:51:08;;;;;;;12.95;5.90;;;;;;;;;;5058672;22;20037;-79
2022/03/11 00:53:34;;;;;;;12.55;6.53;;;;;;;;;;5053040;28;20036;-81
2022/03/11 00:56:00;;;;;;;13.65;6.50;;;;;;;;;;5043222;28;20018;-81
2022/03/11 00:58:26;;;;;;;12.68;6.18;;;;;;;;;;5040169;28;20021;-81
2022/03/11 01:00:52;;;;;;;12.48;6.38;;;;;;;;;;5059170;28;20029;-81
2022/03/11 01:03:18;;;;;;;13.23;6.22;;;;;;;;;;5057911;28;20429;-82
2022/03/11 01:05:44;;;;;;;13.07;6.35;;;;;;;;;;5039264;28;20074;-81
2022/03/11 01:08:10;;;;;;;17.23;6.53;;;;;;;;;;5041395;28;20113;-81
2022/03/11 01:10:36;;;;;;;13.32;6.35;;;;;;;;;;5040124;28;20025;-79
2022/03/11 01:13:02;;;;;;;8.80;5.95;;;;;;;;;;5023647;28;20021;-79
2022/03/11 01:15:28;;;;;;;11.30;6.05;;;;;;;;;;5041868;28;20052;-81
2022/03/11 01:17:54;;;;;;;13.63;6.07;;;;;;;;;;5030562;28;20059;-81
2022/03/11 01:20:20;;;;;;;10.30;5.68;;;;;;;;;;5041837;28;20021;-81
2022/03/11 01:22:46;;;;;;;12.60;5.90;;;;;;;;;;5032281;28;20069;-81
2022/03/11 01:25:12;;;;;;;12.48;6.22;;;;;;;;;;5040368;28;20082;-81
2022/03/11 01:27:38;;;;;;;12.13;5.80;;;;;;;;;;5057854;28;20108;-80
2022/03/11 01:30:09;;;;;;;10.90;5.43;;;;;;;;;;5057893;28;20021;-79
2022/03/11 01:32:35;;;;;;;10.63;5.50;;;;;;;;;;5043285;28;20021;-83
2022/03/11 01:35:01;;;;;;;12.35;6.03;;;;;;;;;;5036782;28;20029;-82
2022/03/11 01:37:27;;;;;;;11.07;5.82;;;;;;;;;;5036359;28;20088;-81
2022/03/11 01:39:53;;;;;;;17.83;6.25;;;;;;;;;;5035567;28;20393;-81
2022/03/11 01:42:19;;;;;;;9.60;5.40;;;;;;;;;;5035879;28;20028;-80
2022/03/11 01:44:45;;;;;;;10.05;5.30;;;;;;;;;;5036185;28;20104;-81
2022/03/11 01:47:11;;;;;;;8.88;5.47;;;;;;;;;;5036498;28;20033;-80
2022/03/11 01:49:37;;;;;;;10.35;5.40;;;;;;;;;;5018065;28;20370;-80
2022/03/11 01:52:04;;;;;;;10.10;5.78;;;;;;;;;;5034970;28;20044;-80
2022/03/11 01:54:30;;;;;;;10.75;5.68;;;;;;;;;;5035209;28;20021;-82
2022/03/11 01:56:56;;;;;;;11.27;5.35;;;;;;;;;;5039798;28;20559;-80
2022/03/11 01:59:22;;;;;;;13.35;6.07;;;;;;;;;;5046220;28;20481;-82
2022/03/11 02:01:48;;;;;;;10.15;5.05;;;;;;;;;;5013558;28;20037;-81
2022/03/11 02:04:14;;;;;;;12.10;5.50;;;;;;;;;;5000592;28;20021;-82
2022/03/11 02:06:40;;;;;;;10.02;5.05;;;;;;;;;;5018282;28;20018;-81
2022/03/11 02:09:06;;;;;;;11.75;5.50;;;;;;;;;;5017177;28;20057;-80
2022/03/11 02:11:32;;;;;;;14.82;5.68;;;;;;;;;;5016973;28;20018;-81
2022/03/11 02:13:59;;;;;;;11.48;5.70;;;;;;;;;;5023354;28;20497;-80
2022/03/11 02:16:30;;;;;;;14.73;6.00;;;;;;;;;;5019688;28;20128;-81
2022/03/11 02:18:56;;;;;;;12.32;5.85;;;;;;;;;;5056600;28;20461;-79
2022/03/11 02:21:23;;;;;;;13.45;5.53;;;;;;;;;;5054604;28;20658;-80
2022/03/11 02:23:50;;;;;;;10.75;5.85;;;;;;;;;;5054504;28;20033;-82
2022/03/11 02:26:16;;;;;;;12.63;5.85;;;;;;;;;;5053606;28;20017;-81
2022/03/11 02:28:43;;;;;;;10.35;5.82;;;;;;;;;;5036289;28;20018;-82
2022/03/11 02:31:09;;;;;;;12.07;6.35;;;;;;;;;;5034672;28;20033;-82
2022/03/11 02:33:35;;;;;;;14.00;6.18;;;;;;;;;;5034314;28;20029;-81
2022/03/11 02:36:01;;;;;;;12.57;6.70;;;;;;;;;;5034784;28;20120;-80
2022/03/11 02:38:27;;;;;;;13.90;6.05;;;;;;;;;;5034609;28;20457;-79
2022/03/11 02:40:54;;;;;;;13.02;6.68;;;;;;;;;;5027185;28;20053;-80
2022/03/11 02:43:21;;;;;;;13.25;6.55;;;;;;;;;;5015021;28;20034;-80
2022/03/11 02:45:47;;;;;;;13.60;7.00;;;;;;;;;;5014892;28;20076;-82
2022/03/11 02:48:13;;;;;;;15.65;6.28;;;;;;;;;;5014140;28;20030;-81
2022/03/11 02:50:39;;;;;;;11.88;6.38;;;;;;;;;;5014180;28;20053;-81
2022/03/11 02:53:05;;;;;;;15.23;6.70;;;;;;;;;;5014563;28;20030;-80
2022/03/11 02:55:31;;;;;;;15.05;7.07;;;;;;;;;;5023566;28;20026;-81
2022/03/11 02:57:57;;;;;;;12.40;6.85;;;;;;;;;;5034007;28;20057;-80
2022/03/11 03:00:23;;;;;;;13.93;6.78;;;;;;;;;;5037544;28;20029;-81
2022/03/11 03:02:49;;;;;;;15.20;7.18;;;;;;;;;;5015772;28;20044;-80
2022/03/11 03:05:15;;;;;;;13.57;7.03;;;;;;;;;;5015328;28;20026;-80
2022/03/11 03:07:42;;;;;;;14.95;7.07;;;;;;;;;;5013357;28;20028;-80
2022/03/11 03:10:08;;;;;;;15.88;7.22;;;;;;;;;;5036495;28;20447;-80
2022/03/11 03:12:35;;;;;;;13.88;6.63;;;;;;;;;;5039832;28;20392;-80
2022/03/11 03:15:01;;;;;;;13.63;7.28;;;;;;;;;;5044260;28;20025;-81
2022/03/11 03:17:28;;;;;;;13.50;7.55;;;;;;;;;;5037617;28;20055;-81
2022/03/11 03:19:54;;;;;;;12.88;7.10;;;;;;;;;;5060705;28;20052;-80
2022/03/11 03:22:20;;;;;;;13.65;7.40;;;;;;;;;;5040252;28;20388;-80
2022/03/11 03:24:47;;;;;;;12.70;6.57;;;;;;;;;;5041446;28;20049;-81
2022/03/11 03:27:13;;;;;;;14.35;7.43;;;;;;;;;;5041108;28;20436;-81
2022/03/11 03:29:39;;;;;;;16.75;7.72;;;;;;;;;;5041099;28;20026;-81
2022/03/11 03:32:05;;;;;;;13.40;6.85;;;;;;;;;;5041484;28;20385;-81
2022/03/11 03:34:33;;;;;;;14.52;7.25;;;;;;;;;;5041523;28;20027;-81
2022/03/11 03:36:59;;;;;;;16.33;7.70;;;;;;;;;;5023101;28;20128;-81
2022/03/11 03:39:26;;;;;;;16.30;7.22;;;;;;;;;;5041574;28;20481;-81
2022/03/11 03:41:53;;;;;;;14.63;7.45;;;;;;;;;;5039982;28;20080;-81
2022/03/11 03:44:19;;;;;;;14.18;7.40;;;;;;;;;;5021866;28;20032;-81
2022/03/11 03:46:45;;;;;;;20.85;8.88;;;;;;;;;;5037425;28;20397;-83
2022/03/11 03:49:11;;;;;;;19.15;8.57;;;;;;;;;;5034597;28;20029;-80
2022/03/11 03:51:38;;;;;;;20.92;7.70;;;;;;;;;;4998745;28;20041;-80
2022/03/11 03:54:04;;;;;;;15.40;8.32;;;;;;;;;;5017709;28;20025;-80
2022/03/11 03:56:30;;;;;;;19.95;9.15;;;;;;;;;;5000219;28;20072;-80
2022/03/11 03:58:56;;;;;;;16.10;8.10;;;;;;;;;;5034669;28;20084;-80
2022/03/11 04:01:22;;;;;;;14.85;7.63;;;;;;;;;;5041063;28;20084;-81
2022/03/11 04:03:48;;;;;;;20.40;8.65;;;;;;;;;;5056828;28;20037;-81
2022/03/11 04:06:14;;;;;;;16.17;8.00;;;;;;;;;;5036154;28;20039;-81
2022/03/11 04:08:40;;;;;;;22.83;8.60;;;;;;;;;;5053867;28;20443;-81
2022/03/11 04:11:06;;;;;;;18.50;8.65;;;;;;;;;;5057044;28;20029;-81
2022/03/11 04:13:32;;;;;;;16.10;8.85;;;;;;;;;;5039035;28;20459;-81
2022/03/11 04:15:58;;;;;;;22.33;8.77;;;;;;;;;;5056489;28;20025;-81
2022/03/11 04:18:24;;;;;;;17.90;9.00;;;;;;;;;;5039409;28;20030;-82
2022/03/11 04:20:50;;;;;;;22.00;9.50;;;;;;;;;;5036932;28;20048;-81
2022/03/11 04:23:16;;;;;;;19.27;10.15;;;;;;;;;;5036562;28;20026;-82
2022/03/11 04:25:42;;;;;;;13.82;8.63;;;;;;;;;;5032362;28;20029;-80
2022/03/11 04:28:08;;;;;;;18.58;8.65;;;;;;;;;;5016807;28;20363;-82
2022/03/11 04:30:34;;;;;;;19.58;9.60;;;;;;;;;;5017562;28;20022;-82
2022/03/11 04:33:00;;;;;;;21.13;9.43;;;;;;;;;;5037317;28;20477;-80
2022/03/11 04:35:26;;;;;;;21.73;9.60;;;;;;;;;;5031628;28;20034;-81
2022/03/11 04:37:52;;;;;;;18.98;10.02;;;;;;;;;;5025270;28;20034;-81
2022/03/11 04:40:18;;;;;;;19.25;9.30;;;;;;;;;;5025464;28;20112;-82
2022/03/11 04:42:44;;;;;;;19.98;9.32;;;;;;;;;;5000611;28;20477;-82
2022/03/11 04:45:10;;;;;;;17.00;9.30;;;;;;;;;;5017981;28;20048;-82
2022/03/11 04:47:36;;;;;;;24.08;10.35;;;;;;;;;;5006709;28;20116;-82
2022/03/11 04:50:03;;;;;;;19.95;10.45;;;;;;;;;;5000194;28;20053;-82
2022/03/11 04:52:29;;;;;;;17.83;9.77;;;;;;;;;;5017509;28;20029;-83
2022/03/11 04:54:55;;;;;;;20.10;10.88;;;;;;;;;;5031346;28;20085;-83
2022/03/11 04:57:21;;;;;;;19.63;10.70;;;;;;;;;;5030156;28;20049;-82
2022/03/11 04:59:47;;;;;;;22.17;10.10;;;;;;;;;;5042098;28;20376;-83
2022/03/11 05:02:13;;;;;;;21.83;10.13;;;;;;;;;;5029347;28;20086;-82
2022/03/11 05:04:39;;;;;;;26.38;11.43;;;;;;;;;;5015162;28;20028;-83
2022/03/11 05:07:07;;;;;;;20.45;10.75;;;;;;;;;;5028708;28;20033;-81
2022/03/11 05:09:33;;;;;;;20.90;10.57;;;;;;;;;;5038360;28;20033;-82
2022/03/11 05:11:59;;;;;;;21.15;10.32;;;;;;;;;;5032199;28;20041;-82
2022/03/11 05:14:25;;;;;;;24.17;11.20;;;;;;;;;;5022613;28;20035;-83
2022/03/11 05:16:51;;;;;;;21.52;10.98;;;;;;;;;;5041401;28;20479;-82
2022/03/11 05:19:17;;;;;;;23.58;11.35;;;;;;;;;;5056118;28;20051;-81
2022/03/11 05:21:43;;;;;;;27.83;11.88;;;;;;;;;;5058234;28;20047;-83
2022/03/11 05:24:09;;;;;;;22.20;12.27;;;;;;;;;;5029439;28;20092;-81
2022/03/11 05:26:35;;;;;;;24.05;11.75;;;;;;;;;;5026203;28;20108;-81
2022/03/11 05:29:01;;;;;;;22.17;11.13;;;;;;;;;;5005011;28;20113;-81
2022/03/11 05:31:28;;;;;;;27.65;12.57;;;;;;;;;;5032280;28;20469;-80
2022/03/11 05:33:54;;;;;;;26.38;12.55;;;;;;;;;;5011045;28;20030;-82
2022/03/11 05:36:21;;;;;;;28.70;12.65;;;;;;;;;;4998714;28;20030;-84
2022/03/11 05:38:47;;;;;;;26.85;12.98;;;;;;;;;;5021957;28;20024;-83
2022/03/11 05:41:13;;;;;;;25.88;13.05;;;;;;;;;;5032859;28;20029;-82
2022/03/11 05:43:39;;;;;;;25.52;13.50;;;;;;;;;;5027173;28;20045;-82
2022/03/11 05:46:05;;;;;;;32.60;12.63;;;;;;;;;;5049332;28;20028;-82
2022/03/11 05:48:32;;;;;;;27.23;13.02;;;;;;;;;;5054924;28;20040;-83
2022/03/11 05:50:58;;;;;;;28.45;13.35;;;;;;;;;;5023469;28;20041;-83
2022/03/11 05:53:24;;;;;;;29.38;13.63;;;;;;;;;;5035043;28;20030;-83
2022/03/11 05:55:50;;;;;;;30.35;13.60;;;;;;;;;;5030705;28;20029;-82
2022/03/11 05:58:16;;;;;;;29.15;14.07;;;;;;;;;;5042863;28;20039;-82
2022/03/11 06:00:42;;;;;;;29.17;13.93;;;;;;;;;;5066764;28;20025;-82
2022/03/11 06:03:08;;;;;;;29.65;13.38;;;;;;;;;;5065669;28;20079;-80
2022/03/11 06:05:34;;;;;;;30.73;14.82;;;;;;;;;;5047283;28;20029;-80
2022/03/11 06:08:00;;;;;;;26.27;13.77;;;;;;;;;;5057803;28;20025;-81
2022/03/11 06:10:26;;;;;;;32.55;14.10;;;;;;;;;;5067274;28;20094;-82
2022/03/11 06:12:52;;;;;;;32.03;14.48;;;;;;;;;;5058006;28;20028;-82
2022/03/11 06:15:18;;;;;;;27.38;13.90;;;;;;;;;;5017240;28;20041;-81
2022/03/11 06:17:44;;;;;;;31.00;14.30;;;;;;;;;;5043548;28;20029;-81
2022/03/11 06:20:13;;;;;;;35.63;15.32;;;;;;;;;;5005932;28;20034;-81
2022/03/11 06:22:47;;;;;;;32.90;14.30;;;;;;;;;;5019162;28;20044;-81
2022/03/11 06:25:13;;;;;;;28.02;14.10;;;;;;;;;;5000429;28;20034;-81
2022/03/11 06:27:39;;;;;;;31.10;15.63;;;;;;;;;;5017798;28;20520;-81
2022/03/11 06:30:05;;;;;;;30.73;15.15;;;;;;;;;;4999651;28;20030;-82
2022/03/11 06:32:31;;;;;;;27.60;14.32;;;;;;;;;;4999786;28;20030;-81
2022/03/11 06:34:57;;;;;;;29.80;14.73;;;;;;;;;;5000012;28;20036;-83
2022/03/11 06:37:23;;;;;;;32.40;15.45;;;;;;;;;;4999087;28;20065;-84
2022/03/11 06:39:49;;;;;;;31.00;13.27;;;;;;;;;;5016153;28;20036;-83
2022/03/11 06:42:15;;;;;;;30.88;15.02;;;;;;;;;;5018363;28;20014;-85
2022/03/11 06:44:41;;;;;;;30.38;13.60;;;;;;;;;;5025813;28;20103;-83
2022/03/11 06:47:08;;;;;;;31.17;13.82;;;;;;;;;;5037738;28;20030;-83
2022/03/11 06:49:34;;;;;;;30.88;14.50;;;;;;;;;;5038423;28;20021;-83
2022/03/11 06:52:00;;;;;;;29.58;15.10;;;;;;;;;;5028426;28;20025;-83
2022/03/11 06:54:26;;;;;;;30.02;15.52;;;;;;;;;;5029588;28;20025;-84
2022/03/11 06:56:52;;;;;;;29.30;15.23;;;;;;;;;;5042344;28;20040;-84
2022/03/11 06:59:18;;;;;;;30.88;15.05;;;;;;;;;;5041403;28;20036;-84
2022/03/11 07:01:44;;;;;;;25.90;13.63;;;;;;;;;;5034025;28;20026;-83
2022/03/11 07:04:10;;;;;;;27.48;14.93;;;;;;;;;;5054517;28;20032;-83
2022/03/11 07:06:36;;;;;;;30.52;14.68;;;;;;;;;;5009900;28;20030;-84
2022/03/11 07:09:02;;;;;;;29.25;13.30;;;;;;;;;;5016651;28;20053;-83
2022/03/11 07:11:28;;;;;;;34.03;15.85;;;;;;;;;;5039877;28;20091;-83
2022/03/11 07:13:54;;;;;;;32.58;14.15;;;;;;;;;;5032813;28;20026;-84
2022/03/11 07:16:20;;;;;;;30.20;13.70;;;;;;;;;;5033664;28;20129;-84
2022/03/11 07:18:46;;;;;;;28.40;14.40;;;;;;;;;;5032095;28;20029;-84
2022/03/11 07:21:12;;;;;;;30.00;15.40;;;;;;;;;;5030187;28;20033;-83
2022/03/11 07:23:38;;;;;;;26.55;14.45;;;;;;;;;;5020174;28;20030;-83
2022/03/11 07:26:04;;;;;;;28.98;14.18;;;;;;;;;;5026157;28;20044;-82
2022/03/11 07:28:30;;;;;;;33.40;14.05;;;;;;;;;;5039389;28;20584;-83
2022/03/11 07:30:56;;;;;;;26.63;13.80;;;;;;;;;;5034525;28;20048;-83
2022/03/11 07:33:22;;;;;;;32.25;14.60;;;;;;;;;;5030050;28;20109;-83
2022/03/11 07:35:48;;;;;;;26.38;14.02;;;;;;;;;;5021451;28;20068;-82
2022/03/11 07:38:14;;;;;;;23.15;13.40;;;;;;;;;;5035390;28;20027;-82
2022/03/11 07:40:40;;;;;;;29.15;14.05;;;;;;;;;;5039370;28;20417;-82
2022/03/11 07:43:09;;;;;;;29.40;14.30;;;;;;;;;;5057187;28;20037;-80
2022/03/11 07:45:35;;;;;;;26.48;13.05;;;;;;;;;;5046086;28;20017;-82
2022/03/11 07:48:01;;;;;;;29.48;13.70;;;;;;;;;;5041833;28;20064;-82
2022/03/11 07:50:27;;;;;;;27.33;13.48;;;;;;;;;;5040353;28;20037;-81
2022/03/11 07:52:53;;;;;;;30.02;14.20;;;;;;;;;;5039827;28;20017;-80
2022/03/11 07:55:22;;;;;;;26.40;13.85;;;;;;;;;;5036215;28;20161;-82
2022/03/11 07:57:47;;;;;;;34.58;14.18;;;;;;;;;;5038553;28;20033;-83
2022/03/11 08:00:14;;;;;;;25.48;13.65;;;;;;;;;;5057125;28;20089;-81
2022/03/11 08:02:40;;;;;;;27.00;13.18;;;;;;;;;;5058736;28;20021;-81
2022/03/11 08:05:06;;;;;;;25.88;13.55;;;;;;;;;;5059005;28;20056;-83
2022/03/11 08:07:34;;;;;;;24.70;12.57;;;;;;;;;;5025948;28;20034;-82
2022/03/11 08:10:00;;;;;;;21.70;12.00;;;;;;;;;;5019327;28;20505;-82
2022/03/11 08:12:26;;;;;;;23.33;12.70;;;;;;;;;;5028629;28;20037;-81
2022/03/11 08:14:52;;;;;;;24.27;12.93;;;;;;;;;;5033235;28;20022;-80
2022/03/11 08:17:18;;;;;;;26.58;13.18;;;;;;;;;;5034156;28;20057;-82
2022/03/11 08:19:44;;;;;;;25.63;12.77;;;;;;;;;;5020361;28;20038;-80
2022/03/11 08:22:12;;;;;;;25.00;12.95;;;;;;;;;;5041460;28;20091;-82
2022/03/11 08:24:39;;;;;;;23.35;13.05;;;;;;;;;;5047347;28;20025;-84
2022/03/11 08:27:05;;;;;;;21.80;12.27;;;;;;;;;;5052963;28;20038;-83
2022/03/11 08:29:34;;;;;;;22.42;12.77;;;;;;;;;;5015043;28;20041;-82
2022/03/11 08:32:00;;;;;;;21.40;11.52;;;;;;;;;;5008425;28;20040;-82
2022/03/11 08:34:26;;;;;;;22.55;12.25;;;;;;;;;;5021418;28;20033;-83
2022/03/11 08:36:52;;;;;;;29.65;11.73;;;;;;;;;;5020694;28;20144;-83
2022/03/11 08:39:18;;;;;;;22.10;12.00;;;;;;;;;;5021666;28;20022;-83
2022/03/11 08:41:44;;;;;;;23.55;12.38;;;;;;;;;;5005550;28;20058;-83
2022/03/11 08:44:10;;;;;;;21.25;12.57;;;;;;;;;;5025834;28;20541;-82
2022/03/11 08:46:38;;;;;;;23.13;11.88;;;;;;;;;;5019914;28;20413;-82
2022/03/11 08:49:06;;;;;;;24.50;11.93;;;;;;;;;;5022048;28;20029;-83
2022/03/11 08:51:32;;;;;;;20.10;12.02;;;;;;;;;;5017526;28;20025;-83
2022/03/11 08:53:58;;;;;;;18.98;11.93;;;;;;;;;;5005300;28;20032;-84
2022/03/11 08:56:25;;;;;;;23.17;11.57;;;;;;;;;;5021278;28;20053;-83
2022/03/11 08:58:51;;;;;;;21.67;11.75;;;;;;;;;;5033523;28;20017;-82
2022/03/11 09:01:18;;;;;;;21.25;12.13;;;;;;;;;;5027356;28;20026;-81
2022/03/11 09:03:44;;;;;;;15.95;11.63;;;;;;;;;;5019094;28;20033;-83
2022/03/11 09:06:10;;;;;;;17.60;11.02;;;;;;;;;;5018127;28;20025;-84
2022/03/11 09:08:36;;;;;;;19.85;12.23;;;;;;;;;;5018745;28;20489;-83
2022/03/11 09:11:02;;;;;;;19.55;10.80;;;;;;;;;;5018830;28;20022;-81
2022/03/11 09:13:28;;;;;;;17.95;10.68;;;;;;;;;;5018523;28;20037;-82
2022/03/11 09:15:54;;;;;;;20.80;10.68;;;;;;;;;;5005337;28;20481;-82
2022/03/11 09:18:20;;;;;;;17.80;11.65;;;;;;;;;;5038698;28;20056;-82
2022/03/11 09:20:47;;;;;;;17.20;11.13;;;;;;;;;;5013160;28;20030;-82
2022/03/11 09:23:13;;;;;;;20.83;11.07;;;;;;;;;;5002943;28;20034;-82
2022/03/11 09:25:39;;;;;;;20.77;12.40;;;;;;;;;;5008627;28;20041;-82
2022/03/11 09:28:06;;;;;;;19.90;12.10;;;;;;;;;;5016652;28;20030;-82
2022/03/11 09:30:32;;;;;;;17.38;11.30;;;;;;;;;;5011430;28;20030;-81
2022/03/11 09:32:58;;;;;;;17.45;10.80;;;;;;;;;;5009510;28;20418;-80
2022/03/11 09:35:24;;;;;;;17.75;10.02;;;;;;;;;;5033375;28;20037;-84
2022/03/11 09:37:50;;;;;;;16.00;10.95;;;;;;;;;;5019610;28;20061;-82
2022/03/11 09:40:16;;;;;;;17.48;11.13;;;;;;;;;;5018934;28;20022;-83
2022/03/11 09:42:42;;;;;;;19.10;10.15;;;;;;;;;;5018832;28;20381;-83
2022/03/11 09:45:09;;;;;;;20.85;10.80;;;;;;;;;;5018696;28;20025;-83
2022/03/11 09:47:35;;;;;;;21.80;10.88;;;;;;;;;;5020487;28;20041;-83
2022/03/11 09:50:01;;;;;;;16.83;11.15;;;;;;;;;;5019479;28;20037;-84
2022/03/11 09:52:27;;;;;;;17.63;10.95;;;;;;;;;;5021140;28;20041;-81
2022/03/11 09:54:53;;;;;;;16.88;10.38;;;;;;;;;;5019572;28;20029;-84
2022/03/11 09:57:22;;;;;;;17.10;10.73;;;;;;;;;;5001694;28;20102;-83
2022/03/11 09:59:48;;;;;;;14.80;10.48;;;;;;;;;;5001406;28;20036;-81
2022/03/11 10:02:15;;;;;;;20.02;10.38;;;;;;;;;;5019035;28;20038;-82
2022/03/11 10:04:47;;;;;;;18.85;10.07;;;;;;;;;;5019498;28;20025;-82
2022/03/11 10:07:23;;;;;;;14.88;10.02;;;;;;;;;;5001910;28;20034;-82
2022/03/11 10:09:49;;;;;;;15.68;10.40;;;;;;;;;;5001265;28;20489;-82
2022/03/11 10:12:26;;;;;;;17.65;10.50;;;;;;;;;;5018490;28;20033;-82
2022/03/11 10:15:02;;;;;;;16.95;9.80;;;;;;;;;;5002534;28;20029;-84
2022/03/11 10:17:36;;;;;;;15.35;9.38;;;;;;;;;;5023051;28;20030;-83
2022/03/11 10:20:04;;;;;;;15.48;9.43;;;;;;;;;;5019026;28;20022;-81
2022/03/11 10:22:31;;;;;;;15.85;9.95;;;;;;;;;;5017715;28;20054;-82
2022/03/11 10:25:01;;;;;;;17.50;9.73;;;;;;;;;;5017875;28;20049;-82
2022/03/11 10:27:26;;;;;;;19.00;10.40;;;;;;;;;;5024561;28;20029;-85
2022/03/11 10:29:56;;;;;;;19.42;10.15;;;;;;;;;;5037121;28;20034;-82
2022/03/11 10:32:24;;;;;;;19.52;10.25;;;;;;;;;;5037495;28;20040;-82
2022/03/11 10:34:50;;;;;;;15.93;9.57;;;;;;;;;;5038644;28;20045;-83
2022/03/11 10:37:16;;;;;;;13.43;9.73;;;;;;;;;;5038780;28;20022;-83
2022/03/11 10:39:44;;;;;;;17.65;10.27;;;;;;;;;;5036630;28;20029;-82
2022/03/11 10:42:13;;;;;;;14.98;9.85;;;;;;;;;;5003174;28;20052;-84
2022/03/11 10:44:39;;;;;;;18.55;10.70;;;;;;;;;;5019623;28;20022;-83
2022/03/11 10:47:20;;;;;;;15.95;10.15;;;;;;;;;;5037191;28;20033;-82
2022/03/11 10:49:46;;;;;;;;;;;;;;;;;;5021745;28;20065;-82
2022/03/11 10:52:12;;;;;;;16.08;9.57;;;;;;;;;;5012526;28;19913;-83
2022/03/11 10:54:43;;;;;;;18.05;10.70;;;;;;;;;;5017893;28;20030;-82
2022/03/11 10:57:10;;;;;;;16.42;10.38;;;;;;;;;;5019310;28;20034;-82
2022/03/11 10:59:37;;;;;;;18.52;9.55;;;;;;;;;;5011120;28;20034;-82
2022/03/11 11:02:03;;;;;;;18.80;10.13;;;;;;;;;;5022156;28;20030;-83
2022/03/11 11:04:29;;;;;;;20.70;11.20;;;;;;;;;;5039226;28;20057;-84
2022/03/11 11:06:56;;;;;;;17.95;9.70;;;;;;;;;;5037198;28;20026;-86
2022/03/11 11:09:23;;;;;;;17.52;10.07;;;;;;;;;;5012560;28;20026;-84
2022/03/11 11:11:50;;;;;;;19.08;10.38;;;;;;;;;;5042270;28;20052;-84
2022/03/11 11:14:16;;;;;;;16.45;9.93;;;;;;;;;;5042120;28;20060;-86
2022/03/11 11:16:44;;;;;;;17.65;9.38;;;;;;;;;;5025376;28;20025;-86
2022/03/11 11:19:11;;;;;;;17.45;9.70;;;;;;;;;;5004055;28;20029;-86
2022/03/11 11:21:45;;;;;;;17.33;9.27;;;;;;;;;;5003318;28;20022;-84
2022/03/11 11:24:13;;;;;;;16.23;10.40;;;;;;;;;;5021419;28;20420;-85
2022/03/11 11:26:41;;;;;;;15.35;9.43;;;;;;;;;;5004569;28;20034;-85
2022/03/11 11:29:08;;;;;;;14.30;9.35;;;;;;;;;;5019923;28;20068;-83
2022/03/11 11:31:34;;;;;;;15.43;9.65;;;;;;;;;;5003499;28;20036;-86
2022/03/11 11:34:00;;;;;;;13.10;9.07;;;;;;;;;;5023639;28;20032;-85
2022/03/11 11:36:39;;;;;;;16.17;9.45;;;;;;;;;;5031566;28;20037;-83
2022/03/11 11:39:08;;;;;;;17.15;9.73;;;;;;;;;;5045440;28;20044;-85
2022/03/11 11:41:35;;;;;;;13.20;9.18;;;;;;;;;;5014948;28;20026;-86
2022/03/11 11:44:02;;;;;;;16.35;9.43;;;;;;;;;;5027633;28;20022;-85
2022/03/11 11:46:29;;;;;;;17.95;8.75;;;;;;;;;;5050490;28;20025;-83
2022/03/11 11:48:56;;;;;;;15.50;9.75;;;;;;;;;;5050628;28;20398;-85
2022/03/11 11:51:23;;;;;;;11.48;8.07;;;;;;;;;;5042125;28;20477;-86
2022/03/11 11:53:49;;;;;;;12.27;8.88;;;;;;;;;;5043638;28;20025;-84
2022/03/11 11:56:30;;;;;;;14.50;9.48;;;;;;;;;;5023694;28;20401;-86
2022/03/11 11:58:57;;;;;;;13.00;8.82;;;;;;;;;;5032620;28;20017;-84
2022/03/11 12:01:42;;;;;;;17.27;8.95;;;;;;;;;;5063453;28;20021;-83
2022/03/11 12:04:23;;;;;;;14.90;9.52;;;;;;;;;;5023511;28;20026;-83
2022/03/11 12:06:55;;;;;;;15.65;9.27;;;;;;;;;;5006950;28;20034;-84
2022/03/11 12:09:45;;;;;;;15.77;9.48;;;;;;;;;;5018994;28;20040;-83
2022/03/11 12:12:30;;;;;;;14.38;9.30;;;;;;;;;;5043184;28;20038;-83
2022/03/11 12:15:00;;;;;;;13.90;8.07;;;;;;;;;;5005748;28;20033;-84
2022/03/11 12:17:44;;;;;;;14.80;8.63;;;;;;;;;;5042342;28;20028;-83
2022/03/11 12:20:38;;;;;;;19.33;9.60;;;;;;;;;;5044430;28;20136;-84
2022/03/11 12:23:05;;;;;;;15.38;9.63;;;;;;;;;;5063053;28;20028;-82
2022/03/11 12:25:38;;;;;;;15.52;9.32;;;;;;;;;;5062230;28;20084;-84
2022/03/11 12:28:05;;;;;;;18.50;9.52;;;;;;;;;;5062129;28;20025;-86
2022/03/11 12:30:33;;;;;;;17.15;9.27;;;;;;;;;;5035953;28;20046;-84
2022/03/11 12:33:00;;;;;;;14.05;9.40;;;;;;;;;;5042833;28;20081;-83
2022/03/11 12:35:26;;;;;;;14.57;8.70;;;;;;;;;;5024496;28;20079;-85
2022/03/11 12:37:52;;;;;;;15.43;8.82;;;;;;;;;;5041047;28;20112;-83
2022/03/11 12:40:22;;;;;;;15.35;9.10;;;;;;;;;;5023275;28;20473;-85
2022/03/11 12:42:48;;;;;;;15.40;8.77;;;;;;;;;;5022843;28;20021;-85
2022/03/11 12:45:15;;;;;;;20.85;9.13;;;;;;;;;;5021072;28;20041;-83
2022/03/11 12:47:41;;;;;;;17.25;9.43;;;;;;;;;;5022559;28;20045;-85
2022/03/11 12:50:08;;;;;;;14.88;9.15;;;;;;;;;;5021410;28;20044;-84
2022/03/11 12:55:03;;;;;;;16.85;9.15;;;;;;;;;;5039564;28;20092;-82
2022/03/11 12:57:32;;;;;;;16.17;9.13;;;;;;;;;;5043773;28;20040;-83
2022/03/11 12:59:58;;;;;;;19.45;8.90;;;;;;;;;;5046870;28;20036;-83
2022/03/11 13:02:24;;;;;;;17.65;8.95;;;;;;;;;;5048860;28;20389;-84
2022/03/11 13:04:50;;;;;;;14.93;8.98;;;;;;;;;;5058363;28;20047;-84
2022/03/11 13:07:39;;;;;;;17.85;8.80;;;;;;;;;;5048428;28;20102;-84
2022/03/11 13:10:19;;;;;;;15.40;8.70;;;;;;;;;;5022387;28;20445;-85
2022/03/11 13:12:45;;;;;;;16.90;9.57;;;;;;;;;;5070585;23;20037;-84
2022/03/11 13:15:32;;;;;;;12.25;8.55;;;;;;;;;;5033569;28;20492;-83
2022/03/11 13:18:11;;;;;;;16.00;9.05;;;;;;;;;;5015655;28;20054;-84
2022/03/11 13:23:41;;;;;;;14.00;8.25;;;;;;;;;;5037964;28;20045;-82
2022/03/11 13:26:13;;;;;;;13.95;8.77;;;;;;;;;;5036725;28;20112;-84
2022/03/11 13:31:45;;;;;;;21.10;8.25;;;;;;;;;;4977889;28;20044;-83
2022/03/11 13:34:12;;;;;;;15.80;8.80;;;;;;;;;;5039361;28;20468;-84
2022/03/11 13:36:48;;;;;;;15.43;8.73;;;;;;;;;;5038163;28;20073;-83
2022/03/11 13:45:08;;;;;;;14.77;9.05;;;;;;;;;;5101878;22;20156;-83
2022/03/11 13:50:24;;;;;;;19.00;8.77;;;;;;;;;;5039596;28;20408;-84
2022/03/11 13:52:53;;;;;;;13.85;8.82;;;;;;;;;;5038734;22;20029;-83
2022/03/11 13:55:30;;;;;;;19.08;8.43;;;;;;;;;;5021547;28;20052;-83
2022/03/11 13:58:12;;;;;;;18.50;8.30;;;;;;;;;;5016315;28;20153;-84
2022/03/11 14:00:44;;;;;;;18.27;8.90;;;;;;;;;;5014833;28;20033;-83
2022/03/11 14:03:37;;;;;;;13.05;8.52;;;;;;;;;;4995912;28;20104;-84
2022/03/11 14:06:03;;;;;;;14.75;9.13;;;;;;;;;;4976429;28;20034;-83
2022/03/11 14:08:29;;;;;;;14.93;8.88;;;;;;;;;;4979519;28;20018;-85
2022/03/11 14:11:02;;;;;;;14.02;9.00;;;;;;;;;;4996589;28;20019;-83
2022/03/11 14:13:31;;;;;;;12.70;8.27;;;;;;;;;;4996381;28;20058;-84
2022/03/11 14:16:05;;;;;;;13.73;9.07;;;;;;;;;;4984980;28;20118;-86
2022/03/11 14:18:31;;;;;;;13.48;8.57;;;;;;;;;;4979073;28;20031;-85
2022/03/11 14:20:57;;;;;;;15.13;9.48;;;;;;;;;;4976395;28;20086;-85
2022/03/11 14:23:23;;;;;;;13.70;9.43;;;;;;;;;;4975995;28;20031;-85
2022/03/11 14:25:49;;;;;;;18.45;9.38;;;;;;;;;;4977374;28;20430;-86
2022/03/11 14:28:18;;;;;;;13.20;8.77;;;;;;;;;;4975886;28;20490;-85
2022/03/11 14:30:45;;;;;;;16.48;9.65;;;;;;;;;;4975780;28;20424;-86
2022/03/11 14:33:11;;;;;;;14.23;9.15;;;;;;;;;;4975997;28;20041;-85
2022/03/11 14:35:37;;;;;;;14.05;9.38;;;;;;;;;;4975334;28;20030;-84
2022/03/11 14:38:04;;;;;;;16.80;9.98;;;;;;;;;;4995836;28;20026;-82
2022/03/11 14:40:31;;;;;;;19.73;9.45;;;;;;;;;;4980936;28;20037;-84
2022/03/11 14:42:57;;;;;;;14.23;9.35;;;;;;;;;;4998104;28;20026;-83
2022/03/11 14:45:23;;;;;;;15.43;8.70;;;;;;;;;;4980574;28;20490;-83